sensor_id;sensor_type;location;lat;lon;timestamp;P1;durP1;ratioP1;P2;durP2;ratioP2
35909;SDS011;22004;49.120;-0.200;2023-02-15T00:01:22;46.88;;;24.73;;
35909;SDS011;22004;49.120;-0.200;2023-02-15T00:03:48;44.05;;;25.13;;
35909;SDS011;22004;49.120;-0.200;2023-02-15T00:06:13;45.95;;;25.35;;
35909;SDS011;22004;49.120;-0.200;2023-02-15T00:08:39;41.88;;;24.35;;
35909;SDS011;22004;49.120;-0.200;2023-02-15T00:11:05;45.33;;;24.98;;
35909;SDS011;22004;49.120;-0.200;2023-02-15T00:13:32;46.13;;;26.40;;
35909;SDS011;22004;49.120;-0.200;2023-02-15T00:16:01;44.17;;;24.60;;
35909;SDS011;22004;49.120;-0.200;2023-02-15T00:18:39;46.78;;;26.02;;
35909;SDS011;22004;49.120;-0.200;2023-02-15T00:21:09;45.97;;;25.67;;
35909;SDS011;22004;49.120;-0.200;2023-02-15T00:23:35;48.70;;;26.77;;
35909;SDS011;22004;49.120;-0.200;2023-02-15T00:26:10;45.70;;;25.05;;
35909;SDS011;22004;49.120;-0.200;2023-02-15T00:28:37;42.42;;;24.55;;
35909;SDS011;22004;49.120;-0.200;2023-02-15T00:31:06;43.33;;;25.10;;
35909;SDS011;22004;49.120;-0.200;2023-02-15T00:33:33;41.70;;;24.38;;
35909;SDS011;22004;49.120;-0.200;2023-02-15T00:35:59;38.78;;;23.48;;
35909;SDS011;22004;49.120;-0.200;2023-02-15T00:38:28;43.33;;;24.10;;
35909;SDS011;22004;49.120;-0.200;2023-02-15T00:40:54;41.33;;;23.63;;
35909;SDS011;22004;49.120;-0.200;2023-02-15T00:43:20;40.15;;;23.02;;
35909;SDS011;22004;49.120;-0.200;2023-02-15T00:45:46;39.33;;;23.80;;
35909;SDS011;22004;49.120;-0.200;2023-02-15T00:48:12;41.20;;;22.95;;
35909;SDS011;22004;49.120;-0.200;2023-02-15T00:50:37;37.38;;;22.77;;
35909;SDS011;22004;49.120;-0.200;2023-02-15T00:53:02;41.22;;;23.00;;
35909;SDS011;22004;49.120;-0.200;2023-02-15T00:55:28;37.92;;;22.75;;
35909;SDS011;22004;49.120;-0.200;2023-02-15T00:57:53;38.80;;;22.60;;
35909;SDS011;22004;49.120;-0.200;2023-02-15T01:00:18;35.38;;;21.33;;
35909;SDS011;22004;49.120;-0.200;2023-02-15T01:02:44;40.30;;;23.63;;
35909;SDS011;22004;49.120;-0.200;2023-02-15T01:05:09;44.95;;;24.90;;
35909;SDS011;22004;49.120;-0.200;2023-02-15T01:07:34;38.33;;;23.45;;
35909;SDS011;22004;49.120;-0.200;2023-02-15T01:10:00;39.55;;;23.50;;
35909;SDS011;22004;49.120;-0.200;2023-02-15T01:12:25;35.97;;;22.15;;
35909;SDS011;22004;49.120;-0.200;2023-02-15T01:14:50;40.10;;;23.98;;
35909;SDS011;22004;49.120;-0.200;2023-02-15T01:17:16;37.30;;;22.65;;
35909;SDS011;22004;49.120;-0.200;2023-02-15T01:19:41;43.28;;;23.35;;
35909;SDS011;22004;49.120;-0.200;2023-02-15T01:22:06;38.28;;;21.88;;
35909;SDS011;22004;49.120;-0.200;2023-02-15T01:24:32;35.97;;;21.45;;
35909;SDS011;22004;49.120;-0.200;2023-02-15T01:26:57;36.05;;;22.70;;
35909;SDS011;22004;49.120;-0.200;2023-02-15T01:29:22;37.03;;;22.98;;
35909;SDS011;22004;49.120;-0.200;2023-02-15T01:31:48;37.40;;;21.38;;
35909;SDS011;22004;49.120;-0.200;2023-02-15T01:34:14;35.38;;;22.05;;
35909;SDS011;22004;49.120;-0.200;2023-02-15T01:36:39;35.33;;;22.30;;
35909;SDS011;22004;49.120;-0.200;2023-02-15T01:39:04;37.45;;;22.55;;
35909;SDS011;22004;49.120;-0.200;2023-02-15T01:41:30;39.25;;;22.42;;
35909;SDS011;22004;49.120;-0.200;2023-02-15T01:46:24;38.17;;;23.13;;
35909;SDS011;22004;49.120;-0.200;2023-02-15T01:48:55;36.05;;;22.15;;
35909;SDS011;22004;49.120;-0.200;2023-02-15T01:51:25;37.75;;;22.88;;
35909;SDS011;22004;49.120;-0.200;2023-02-15T01:53:59;39.97;;;22.85;;
35909;SDS011;22004;49.120;-0.200;2023-02-15T01:56:29;37.40;;;22.67;;
35909;SDS011;22004;49.120;-0.200;2023-02-15T01:58:58;37.08;;;22.90;;
35909;SDS011;22004;49.120;-0.200;2023-02-15T02:01:27;33.35;;;21.17;;
35909;SDS011;22004;49.120;-0.200;2023-02-15T02:06:44;39.03;;;23.10;;
35909;SDS011;22004;49.120;-0.200;2023-02-15T02:09:13;38.05;;;22.00;;
35909;SDS011;22004;49.120;-0.200;2023-02-15T02:11:38;37.88;;;22.88;;
35909;SDS011;22004;49.120;-0.200;2023-02-15T02:14:05;42.15;;;22.60;;
35909;SDS011;22004;49.120;-0.200;2023-02-15T02:27:39;34.60;;;21.63;;
35909;SDS011;22004;49.120;-0.200;2023-02-15T02:38:48;33.90;;;20.95;;
35909;SDS011;22004;49.120;-0.200;2023-02-15T02:41:42;39.15;;;22.35;;
35909;SDS011;22004;49.120;-0.200;2023-02-15T02:46:54;37.17;;;23.25;;
35909;SDS011;22004;49.120;-0.200;2023-02-15T02:49:42;39.67;;;22.42;;
35909;SDS011;22004;49.120;-0.200;2023-02-15T03:00:46;33.60;;;21.75;;
35909;SDS011;22004;49.120;-0.200;2023-02-15T03:06:00;39.95;;;22.60;;
35909;SDS011;22004;49.120;-0.200;2023-02-15T03:08:36;33.45;;;21.27;;
35909;SDS011;22004;49.120;-0.200;2023-02-15T03:11:04;39.47;;;23.13;;
35909;SDS011;22004;49.120;-0.200;2023-02-15T03:13:30;37.58;;;22.45;;
35909;SDS011;22004;49.120;-0.200;2023-02-15T03:15:57;35.20;;;21.88;;
35909;SDS011;22004;49.120;-0.200;2023-02-15T03:21:19;33.83;;;21.80;;
35909;SDS011;22004;49.120;-0.200;2023-02-15T03:24:15;38.22;;;22.77;;
35909;SDS011;22004;49.120;-0.200;2023-02-15T03:26:45;34.88;;;21.35;;
35909;SDS011;22004;49.120;-0.200;2023-02-15T03:29:14;39.03;;;22.92;;
35909;SDS011;22004;49.120;-0.200;2023-02-15T03:31:42;37.42;;;23.17;;
35909;SDS011;22004;49.120;-0.200;2023-02-15T03:34:12;40.28;;;22.70;;
35909;SDS011;22004;49.120;-0.200;2023-02-15T03:39:18;37.35;;;22.83;;
35909;SDS011;22004;49.120;-0.200;2023-02-15T03:41:59;38.10;;;22.25;;
35909;SDS011;22004;49.120;-0.200;2023-02-15T03:47:37;35.25;;;22.05;;
35909;SDS011;22004;49.120;-0.200;2023-02-15T03:50:08;38.17;;;22.33;;
35909;SDS011;22004;49.120;-0.200;2023-02-15T03:52:57;38.95;;;22.52;;
35909;SDS011;22004;49.120;-0.200;2023-02-15T03:55:25;35.15;;;21.80;;
35909;SDS011;22004;49.120;-0.200;2023-02-15T03:57:51;37.17;;;22.45;;
35909;SDS011;22004;49.120;-0.200;2023-02-15T04:00:37;35.70;;;21.47;;
35909;SDS011;22004;49.120;-0.200;2023-02-15T04:05:56;34.58;;;21.63;;
35909;SDS011;22004;49.120;-0.200;2023-02-15T04:08:21;33.65;;;21.48;;
35909;SDS011;22004;49.120;-0.200;2023-02-15T04:11:06;32.25;;;20.13;;
35909;SDS011;22004;49.120;-0.200;2023-02-15T04:13:32;35.47;;;22.30;;
35909;SDS011;22004;49.120;-0.200;2023-02-15T04:15:57;36.00;;;22.23;;
35909;SDS011;22004;49.120;-0.200;2023-02-15T04:18:29;33.42;;;21.58;;
35909;SDS011;22004;49.120;-0.200;2023-02-15T04:21:21;35.85;;;21.25;;
35909;SDS011;22004;49.120;-0.200;2023-02-15T04:24:07;33.95;;;21.48;;
35909;SDS011;22004;49.120;-0.200;2023-02-15T04:26:52;37.80;;;21.60;;
35909;SDS011;22004;49.120;-0.200;2023-02-15T04:29:18;35.03;;;21.30;;
35909;SDS011;22004;49.120;-0.200;2023-02-15T04:31:45;35.20;;;20.45;;
35909;SDS011;22004;49.120;-0.200;2023-02-15T04:34:10;36.35;;;20.58;;
35909;SDS011;22004;49.120;-0.200;2023-02-15T04:36:36;34.35;;;21.73;;
35909;SDS011;22004;49.120;-0.200;2023-02-15T04:39:02;34.65;;;21.10;;
35909;SDS011;22004;49.120;-0.200;2023-02-15T04:41:28;33.85;;;21.17;;
35909;SDS011;22004;49.120;-0.200;2023-02-15T04:43:53;34.00;;;20.77;;
35909;SDS011;22004;49.120;-0.200;2023-02-15T04:46:19;35.63;;;21.10;;
35909;SDS011;22004;49.120;-0.200;2023-02-15T04:48:44;32.97;;;20.25;;
35909;SDS011;22004;49.120;-0.200;2023-02-15T04:51:10;34.75;;;21.40;;
35909;SDS011;22004;49.120;-0.200;2023-02-15T04:53:35;36.50;;;21.58;;
35909;SDS011;22004;49.120;-0.200;2023-02-15T04:56:01;35.95;;;22.15;;
35909;SDS011;22004;49.120;-0.200;2023-02-15T04:58:26;34.90;;;21.27;;
35909;SDS011;22004;49.120;-0.200;2023-02-15T05:00:54;32.88;;;20.38;;
35909;SDS011;22004;49.120;-0.200;2023-02-15T05:03:20;35.13;;;20.60;;
35909;SDS011;22004;49.120;-0.200;2023-02-15T05:05:46;35.58;;;22.23;;
35909;SDS011;22004;49.120;-0.200;2023-02-15T05:08:11;34.17;;;21.42;;
35909;SDS011;22004;49.120;-0.200;2023-02-15T05:10:36;36.78;;;20.98;;
35909;SDS011;22004;49.120;-0.200;2023-02-15T05:13:02;35.72;;;21.45;;
35909;SDS011;22004;49.120;-0.200;2023-02-15T05:15:27;35.47;;;20.58;;
35909;SDS011;22004;49.120;-0.200;2023-02-15T05:17:52;31.73;;;21.15;;
35909;SDS011;22004;49.120;-0.200;2023-02-15T05:20:18;33.30;;;20.40;;
35909;SDS011;22004;49.120;-0.200;2023-02-15T05:22:43;34.92;;;21.50;;
35909;SDS011;22004;49.120;-0.200;2023-02-15T05:25:09;35.10;;;20.90;;
35909;SDS011;22004;49.120;-0.200;2023-02-15T05:27:53;36.53;;;21.27;;
35909;SDS011;22004;49.120;-0.200;2023-02-15T05:30:37;35.70;;;22.98;;
35909;SDS011;22004;49.120;-0.200;2023-02-15T05:33:05;39.72;;;24.23;;
35909;SDS011;22004;49.120;-0.200;2023-02-15T05:35:31;37.38;;;22.08;;
35909;SDS011;22004;49.120;-0.200;2023-02-15T05:37:57;33.42;;;21.02;;
35909;SDS011;22004;49.120;-0.200;2023-02-15T05:40:22;37.38;;;21.33;;
35909;SDS011;22004;49.120;-0.200;2023-02-15T05:42:47;34.85;;;21.02;;
35909;SDS011;22004;49.120;-0.200;2023-02-15T05:45:13;34.10;;;21.40;;
35909;SDS011;22004;49.120;-0.200;2023-02-15T05:47:38;34.33;;;21.20;;
35909;SDS011;22004;49.120;-0.200;2023-02-15T05:50:04;40.63;;;24.90;;
35909;SDS011;22004;49.120;-0.200;2023-02-15T05:52:30;37.35;;;22.52;;
35909;SDS011;22004;49.120;-0.200;2023-02-15T05:54:55;42.38;;;23.27;;
35909;SDS011;22004;49.120;-0.200;2023-02-15T05:57:20;45.40;;;24.42;;
35909;SDS011;22004;49.120;-0.200;2023-02-15T05:59:46;39.65;;;22.45;;
35909;SDS011;22004;49.120;-0.200;2023-02-15T06:02:11;42.83;;;23.05;;
35909;SDS011;22004;49.120;-0.200;2023-02-15T06:04:37;41.30;;;25.17;;
35909;SDS011;22004;49.120;-0.200;2023-02-15T06:07:02;43.38;;;25.77;;
35909;SDS011;22004;49.120;-0.200;2023-02-15T06:09:28;41.00;;;25.23;;
35909;SDS011;22004;49.120;-0.200;2023-02-15T06:11:53;42.95;;;24.83;;
35909;SDS011;22004;49.120;-0.200;2023-02-15T06:14:18;44.92;;;25.98;;
35909;SDS011;22004;49.120;-0.200;2023-02-15T06:16:44;51.13;;;24.85;;
35909;SDS011;22004;49.120;-0.200;2023-02-15T06:19:09;32.80;;;21.10;;
35909;SDS011;22004;49.120;-0.200;2023-02-15T06:21:34;41.05;;;23.88;;
35909;SDS011;22004;49.120;-0.200;2023-02-15T06:24:00;39.30;;;22.83;;
35909;SDS011;22004;49.120;-0.200;2023-02-15T06:26:25;34.53;;;22.15;;
35909;SDS011;22004;49.120;-0.200;2023-02-15T06:28:50;37.50;;;23.08;;
35909;SDS011;22004;49.120;-0.200;2023-02-15T06:31:16;57.38;;;33.30;;
35909;SDS011;22004;49.120;-0.200;2023-02-15T06:33:41;38.25;;;24.60;;
35909;SDS011;22004;49.120;-0.200;2023-02-15T06:36:06;42.08;;;24.35;;
35909;SDS011;22004;49.120;-0.200;2023-02-15T06:38:32;39.28;;;23.17;;
35909;SDS011;22004;49.120;-0.200;2023-02-15T06:40:57;39.20;;;23.50;;
35909;SDS011;22004;49.120;-0.200;2023-02-15T06:43:23;38.63;;;23.52;;
35909;SDS011;22004;49.120;-0.200;2023-02-15T06:45:48;40.33;;;22.67;;
35909;SDS011;22004;49.120;-0.200;2023-02-15T06:48:13;37.70;;;23.48;;
35909;SDS011;22004;49.120;-0.200;2023-02-15T06:50:39;36.38;;;22.65;;
35909;SDS011;22004;49.120;-0.200;2023-02-15T06:53:04;38.90;;;22.88;;
35909;SDS011;22004;49.120;-0.200;2023-02-15T06:55:30;40.72;;;22.63;;
35909;SDS011;22004;49.120;-0.200;2023-02-15T06:57:55;42.95;;;24.50;;
35909;SDS011;22004;49.120;-0.200;2023-02-15T07:00:20;52.08;;;27.05;;
35909;SDS011;22004;49.120;-0.200;2023-02-15T07:02:47;36.78;;;23.52;;
35909;SDS011;22004;49.120;-0.200;2023-02-15T07:05:13;46.05;;;23.75;;
35909;SDS011;22004;49.120;-0.200;2023-02-15T07:07:38;36.78;;;22.60;;
35909;SDS011;22004;49.120;-0.200;2023-02-15T07:10:04;36.45;;;22.33;;
35909;SDS011;22004;49.120;-0.200;2023-02-15T07:12:30;37.30;;;22.02;;
35909;SDS011;22004;49.120;-0.200;2023-02-15T07:15:11;39.53;;;22.13;;
35909;SDS011;22004;49.120;-0.200;2023-02-15T07:17:39;39.03;;;23.05;;
35909;SDS011;22004;49.120;-0.200;2023-02-15T07:20:12;38.70;;;22.00;;
35909;SDS011;22004;49.120;-0.200;2023-02-15T07:22:39;37.10;;;22.10;;
35909;SDS011;22004;49.120;-0.200;2023-02-15T07:25:04;41.28;;;22.85;;
35909;SDS011;22004;49.120;-0.200;2023-02-15T07:27:31;40.20;;;23.25;;
35909;SDS011;22004;49.120;-0.200;2023-02-15T07:29:57;38.65;;;23.50;;
35909;SDS011;22004;49.120;-0.200;2023-02-15T07:32:23;39.92;;;22.92;;
35909;SDS011;22004;49.120;-0.200;2023-02-15T07:34:48;36.83;;;22.02;;
35909;SDS011;22004;49.120;-0.200;2023-02-15T07:37:13;36.88;;;22.27;;
35909;SDS011;22004;49.120;-0.200;2023-02-15T07:39:39;35.00;;;21.52;;
35909;SDS011;22004;49.120;-0.200;2023-02-15T07:42:04;44.08;;;26.10;;
35909;SDS011;22004;49.120;-0.200;2023-02-15T07:44:29;59.00;;;28.75;;
35909;SDS011;22004;49.120;-0.200;2023-02-15T07:46:55;40.45;;;23.88;;
35909;SDS011;22004;49.120;-0.200;2023-02-15T07:49:20;47.05;;;24.30;;
35909;SDS011;22004;49.120;-0.200;2023-02-15T07:51:45;45.80;;;25.90;;
35909;SDS011;22004;49.120;-0.200;2023-02-15T07:54:11;43.53;;;23.45;;
35909;SDS011;22004;49.120;-0.200;2023-02-15T07:56:36;37.08;;;22.23;;
35909;SDS011;22004;49.120;-0.200;2023-02-15T07:59:02;39.22;;;23.58;;
35909;SDS011;22004;49.120;-0.200;2023-02-15T08:01:31;43.25;;;24.70;;
35909;SDS011;22004;49.120;-0.200;2023-02-15T08:03:58;39.83;;;23.83;;
35909;SDS011;22004;49.120;-0.200;2023-02-15T08:06:25;39.92;;;23.48;;
35909;SDS011;22004;49.120;-0.200;2023-02-15T08:08:51;39.75;;;23.77;;
35909;SDS011;22004;49.120;-0.200;2023-02-15T08:11:28;37.30;;;22.65;;
35909;SDS011;22004;49.120;-0.200;2023-02-15T08:19:10;38.60;;;22.88;;
35909;SDS011;22004;49.120;-0.200;2023-02-15T08:21:38;37.33;;;22.95;;
35909;SDS011;22004;49.120;-0.200;2023-02-15T08:24:05;37.08;;;22.40;;
35909;SDS011;22004;49.120;-0.200;2023-02-15T08:26:32;42.63;;;23.10;;
35909;SDS011;22004;49.120;-0.200;2023-02-15T08:28:58;38.20;;;23.05;;
35909;SDS011;22004;49.120;-0.200;2023-02-15T08:31:24;38.55;;;22.88;;
35909;SDS011;22004;49.120;-0.200;2023-02-15T08:33:51;35.25;;;21.42;;
35909;SDS011;22004;49.120;-0.200;2023-02-15T08:36:19;41.35;;;22.88;;
35909;SDS011;22004;49.120;-0.200;2023-02-15T08:38:46;37.88;;;22.13;;
35909;SDS011;22004;49.120;-0.200;2023-02-15T08:41:13;39.05;;;22.92;;
35909;SDS011;22004;49.120;-0.200;2023-02-15T08:43:47;38.15;;;22.30;;
35909;SDS011;22004;49.120;-0.200;2023-02-15T08:46:15;38.60;;;22.67;;
35909;SDS011;22004;49.120;-0.200;2023-02-15T08:48:41;37.85;;;23.23;;
35909;SDS011;22004;49.120;-0.200;2023-02-15T08:51:14;39.33;;;23.48;;
35909;SDS011;22004;49.120;-0.200;2023-02-15T08:53:47;38.70;;;23.23;;
35909;SDS011;22004;49.120;-0.200;2023-02-15T08:56:15;43.00;;;24.23;;
35909;SDS011;22004;49.120;-0.200;2023-02-15T08:58:41;39.20;;;21.13;;
35909;SDS011;22004;49.120;-0.200;2023-02-15T09:03:43;34.85;;;21.45;;
35909;SDS011;22004;49.120;-0.200;2023-02-15T09:06:09;37.05;;;21.92;;
35909;SDS011;22004;49.120;-0.200;2023-02-15T09:08:35;37.05;;;22.15;;
35909;SDS011;22004;49.120;-0.200;2023-02-15T09:11:05;37.58;;;21.42;;
35909;SDS011;22004;49.120;-0.200;2023-02-15T09:13:35;35.83;;;20.27;;
35909;SDS011;22004;49.120;-0.200;2023-02-15T09:16:02;37.15;;;20.50;;
35909;SDS011;22004;49.120;-0.200;2023-02-15T09:18:33;39.00;;;21.13;;
35909;SDS011;22004;49.120;-0.200;2023-02-15T09:21:21;37.13;;;20.65;;
35909;SDS011;22004;49.120;-0.200;2023-02-15T09:23:49;42.65;;;20.58;;
35909;SDS011;22004;49.120;-0.200;2023-02-15T09:26:17;44.42;;;21.25;;
35909;SDS011;22004;49.120;-0.200;2023-02-15T09:28:47;44.38;;;20.58;;
35909;SDS011;22004;49.120;-0.200;2023-02-15T09:31:18;32.65;;;19.90;;
35909;SDS011;22004;49.120;-0.200;2023-02-15T09:33:45;30.17;;;19.58;;
35909;SDS011;22004;49.120;-0.200;2023-02-15T09:38:42;39.30;;;21.23;;
35909;SDS011;22004;49.120;-0.200;2023-02-15T09:50:01;33.47;;;19.98;;
35909;SDS011;22004;49.120;-0.200;2023-02-15T10:08:35;43.85;;;22.83;;
35909;SDS011;22004;49.120;-0.200;2023-02-15T10:19:42;34.88;;;19.65;;
35909;SDS011;22004;49.120;-0.200;2023-02-15T10:27:47;43.17;;;21.23;;
35909;SDS011;22004;49.120;-0.200;2023-02-15T10:30:15;33.30;;;19.60;;
35909;SDS011;22004;49.120;-0.200;2023-02-15T10:49:09;35.03;;;17.30;;
35909;SDS011;22004;49.120;-0.200;2023-02-15T11:00:17;28.10;;;17.08;;
35909;SDS011;22004;49.120;-0.200;2023-02-15T11:08:25;28.80;;;15.65;;
35909;SDS011;22004;49.120;-0.200;2023-02-15T11:10:58;27.58;;;14.35;;
35909;SDS011;22004;49.120;-0.200;2023-02-15T11:13:27;25.90;;;13.95;;
35909;SDS011;22004;49.120;-0.200;2023-02-15T11:16:03;26.55;;;14.98;;
35909;SDS011;22004;49.120;-0.200;2023-02-15T11:18:37;25.48;;;14.40;;
35909;SDS011;22004;49.120;-0.200;2023-02-15T11:23:49;23.95;;;14.82;;
35909;SDS011;22004;49.120;-0.200;2023-02-15T11:29:09;26.90;;;14.25;;
35909;SDS011;22004;49.120;-0.200;2023-02-15T11:31:57;27.73;;;15.77;;
35909;SDS011;22004;49.120;-0.200;2023-02-15T11:34:29;25.30;;;15.20;;
35909;SDS011;22004;49.120;-0.200;2023-02-15T11:37:00;28.35;;;15.57;;
35909;SDS011;22004;49.120;-0.200;2023-02-15T11:39:36;25.17;;;15.13;;
35909;SDS011;22004;49.120;-0.200;2023-02-15T11:42:06;25.35;;;16.13;;
35909;SDS011;22004;49.120;-0.200;2023-02-15T11:44:42;23.73;;;14.85;;
35909;SDS011;22004;49.120;-0.200;2023-02-15T11:47:16;29.85;;;15.70;;
35909;SDS011;22004;49.120;-0.200;2023-02-15T11:49:41;28.17;;;15.98;;
35909;SDS011;22004;49.120;-0.200;2023-02-15T11:52:07;25.73;;;15.13;;
35909;SDS011;22004;49.120;-0.200;2023-02-15T11:54:39;23.17;;;14.38;;
35909;SDS011;22004;49.120;-0.200;2023-02-15T11:59:39;27.55;;;15.13;;
35909;SDS011;22004;49.120;-0.200;2023-02-15T12:02:42;23.45;;;15.43;;
35909;SDS011;22004;49.120;-0.200;2023-02-15T12:05:17;31.63;;;16.83;;
35909;SDS011;22004;49.120;-0.200;2023-02-15T12:10:36;26.70;;;16.27;;
35909;SDS011;22004;49.120;-0.200;2023-02-15T12:15:37;26.98;;;16.60;;
35909;SDS011;22004;49.120;-0.200;2023-02-15T12:18:16;29.77;;;15.85;;
35909;SDS011;22004;49.120;-0.200;2023-02-15T12:20:44;27.65;;;15.95;;
35909;SDS011;22004;49.120;-0.200;2023-02-15T12:23:13;25.95;;;15.70;;
35909;SDS011;22004;49.120;-0.200;2023-02-15T12:30:57;25.85;;;15.35;;
35909;SDS011;22004;49.120;-0.200;2023-02-15T12:35:59;24.08;;;15.25;;
35909;SDS011;22004;49.120;-0.200;2023-02-15T12:38:28;26.10;;;14.93;;
35909;SDS011;22004;49.120;-0.200;2023-02-15T12:41:01;26.65;;;15.52;;
35909;SDS011;22004;49.120;-0.200;2023-02-15T12:43:46;26.42;;;16.33;;
35909;SDS011;22004;49.120;-0.200;2023-02-15T12:52:06;26.45;;;17.65;;
35909;SDS011;22004;49.120;-0.200;2023-02-15T12:54:48;27.33;;;16.38;;
35909;SDS011;22004;49.120;-0.200;2023-02-15T12:57:24;24.17;;;16.23;;
35909;SDS011;22004;49.120;-0.200;2023-02-15T13:08:09;26.25;;;17.05;;
35909;SDS011;22004;49.120;-0.200;2023-02-15T13:10:36;24.33;;;16.10;;
35909;SDS011;22004;49.120;-0.200;2023-02-15T13:13:11;29.40;;;15.93;;
35909;SDS011;22004;49.120;-0.200;2023-02-15T13:15:46;30.98;;;17.67;;
35909;SDS011;22004;49.120;-0.200;2023-02-15T13:18:16;26.38;;;16.35;;
35909;SDS011;22004;49.120;-0.200;2023-02-15T13:20:48;27.65;;;16.70;;
35909;SDS011;22004;49.120;-0.200;2023-02-15T13:25:52;26.17;;;17.13;;
35909;SDS011;22004;49.120;-0.200;2023-02-15T13:28:22;30.27;;;16.77;;
35909;SDS011;22004;49.120;-0.200;2023-02-15T13:30:52;25.35;;;16.35;;
35909;SDS011;22004;49.120;-0.200;2023-02-15T13:41:16;26.30;;;16.40;;
35909;SDS011;22004;49.120;-0.200;2023-02-15T13:49:27;31.27;;;16.15;;
35909;SDS011;22004;49.120;-0.200;2023-02-15T13:52:23;29.55;;;15.13;;
35909;SDS011;22004;49.120;-0.200;2023-02-15T13:57:50;30.60;;;15.77;;
35909;SDS011;22004;49.120;-0.200;2023-02-15T14:00:31;28.40;;;14.93;;
35909;SDS011;22004;49.120;-0.200;2023-02-15T14:10:53;22.73;;;13.85;;
35909;SDS011;22004;49.120;-0.200;2023-02-15T14:22:08;22.97;;;13.03;;
35909;SDS011;22004;49.120;-0.200;2023-02-15T14:30:20;22.23;;;14.23;;
35909;SDS011;22004;49.120;-0.200;2023-02-15T14:32:49;22.73;;;13.77;;
35909;SDS011;22004;49.120;-0.200;2023-02-15T14:35:19;23.67;;;12.32;;
35909;SDS011;22004;49.120;-0.200;2023-02-15T14:43:24;25.38;;;13.63;;
35909;SDS011;22004;49.120;-0.200;2023-02-15T14:48:47;24.40;;;15.23;;
35909;SDS011;22004;49.120;-0.200;2023-02-15T14:54:08;23.33;;;12.93;;
35909;SDS011;22004;49.120;-0.200;2023-02-15T14:56:35;18.65;;;11.98;;
35909;SDS011;22004;49.120;-0.200;2023-02-15T14:59:11;22.67;;;14.15;;
35909;SDS011;22004;49.120;-0.200;2023-02-15T15:01:39;21.58;;;11.73;;
35909;SDS011;22004;49.120;-0.200;2023-02-15T15:04:10;20.80;;;11.15;;
35909;SDS011;22004;49.120;-0.200;2023-02-15T15:06:56;25.48;;;11.32;;
35909;SDS011;22004;49.120;-0.200;2023-02-15T15:09:25;20.52;;;12.13;;
35909;SDS011;22004;49.120;-0.200;2023-02-15T15:11:53;20.73;;;11.77;;
35909;SDS011;22004;49.120;-0.200;2023-02-15T15:16:57;18.42;;;10.98;;
35909;SDS011;22004;49.120;-0.200;2023-02-15T15:22:20;23.38;;;11.55;;
35909;SDS011;22004;49.120;-0.200;2023-02-15T15:27:41;19.25;;;10.93;;
35909;SDS011;22004;49.120;-0.200;2023-02-15T15:32:50;21.17;;;11.20;;
35909;SDS011;22004;49.120;-0.200;2023-02-15T15:49:37;17.02;;;10.90;;
35909;SDS011;22004;49.120;-0.200;2023-02-15T15:52:20;19.10;;;11.07;;
35909;SDS011;22004;49.120;-0.200;2023-02-15T15:54:46;19.67;;;10.73;;
35909;SDS011;22004;49.120;-0.200;2023-02-15T15:57:16;18.77;;;10.85;;
35909;SDS011;22004;49.120;-0.200;2023-02-15T15:59:53;27.45;;;11.05;;
35909;SDS011;22004;49.120;-0.200;2023-02-15T16:02:19;18.30;;;9.75;;
35909;SDS011;22004;49.120;-0.200;2023-02-15T16:04:45;19.52;;;10.82;;
35909;SDS011;22004;49.120;-0.200;2023-02-15T16:09:41;19.15;;;10.30;;
35909;SDS011;22004;49.120;-0.200;2023-02-15T16:12:13;21.88;;;11.02;;
35909;SDS011;22004;49.120;-0.200;2023-02-15T16:14:42;16.98;;;10.35;;
35909;SDS011;22004;49.120;-0.200;2023-02-15T16:17:17;17.13;;;10.75;;
35909;SDS011;22004;49.120;-0.200;2023-02-15T16:19:47;19.92;;;13.88;;
35909;SDS011;22004;49.120;-0.200;2023-02-15T16:22:15;18.05;;;10.85;;
35909;SDS011;22004;49.120;-0.200;2023-02-15T16:29:56;20.40;;;11.07;;
35909;SDS011;22004;49.120;-0.200;2023-02-15T16:32:25;18.40;;;10.75;;
35909;SDS011;22004;49.120;-0.200;2023-02-15T16:34:55;21.27;;;11.25;;
35909;SDS011;22004;49.120;-0.200;2023-02-15T16:37:26;19.40;;;10.45;;
35909;SDS011;22004;49.120;-0.200;2023-02-15T16:39:56;18.92;;;10.90;;
35909;SDS011;22004;49.120;-0.200;2023-02-15T16:42:21;21.85;;;11.73;;
35909;SDS011;22004;49.120;-0.200;2023-02-15T16:44:49;25.95;;;13.82;;
35909;SDS011;22004;49.120;-0.200;2023-02-15T16:47:21;26.30;;;12.77;;
35909;SDS011;22004;49.120;-0.200;2023-02-15T16:49:51;23.08;;;13.30;;
35909;SDS011;22004;49.120;-0.200;2023-02-15T16:52:20;20.73;;;12.57;;
35909;SDS011;22004;49.120;-0.200;2023-02-15T16:54:53;20.92;;;13.07;;
35909;SDS011;22004;49.120;-0.200;2023-02-15T16:57:23;21.63;;;13.20;;
35909;SDS011;22004;49.120;-0.200;2023-02-15T16:59:52;27.48;;;15.20;;
35909;SDS011;22004;49.120;-0.200;2023-02-15T17:02:22;20.05;;;12.63;;
35909;SDS011;22004;49.120;-0.200;2023-02-15T17:05:15;21.58;;;13.48;;
35909;SDS011;22004;49.120;-0.200;2023-02-15T17:10:40;22.17;;;13.27;;
35909;SDS011;22004;49.120;-0.200;2023-02-15T17:15:37;28.30;;;15.10;;
35909;SDS011;22004;49.120;-0.200;2023-02-15T17:18:20;13.73;;;9.68;;
35909;SDS011;22004;49.120;-0.200;2023-02-15T17:20:48;15.43;;;9.35;;
35909;SDS011;22004;49.120;-0.200;2023-02-15T17:25:54;16.23;;;9.68;;
35909;SDS011;22004;49.120;-0.200;2023-02-15T17:28:22;13.27;;;8.73;;
35909;SDS011;22004;49.120;-0.200;2023-02-15T17:30:53;13.98;;;9.23;;
35909;SDS011;22004;49.120;-0.200;2023-02-15T17:33:35;14.88;;;8.95;;
35909;SDS011;22004;49.120;-0.200;2023-02-15T17:41:28;15.38;;;8.80;;
35909;SDS011;22004;49.120;-0.200;2023-02-15T17:43:55;15.20;;;9.80;;
35909;SDS011;22004;49.120;-0.200;2023-02-15T17:46:21;14.25;;;9.70;;
35909;SDS011;22004;49.120;-0.200;2023-02-15T17:48:47;14.00;;;9.30;;
35909;SDS011;22004;49.120;-0.200;2023-02-15T17:51:14;20.85;;;9.23;;
35909;SDS011;22004;49.120;-0.200;2023-02-15T17:53:41;20.77;;;10.63;;
35909;SDS011;22004;49.120;-0.200;2023-02-15T17:56:26;15.52;;;10.05;;
35909;SDS011;22004;49.120;-0.200;2023-02-15T17:58:51;14.75;;;10.02;;
35909;SDS011;22004;49.120;-0.200;2023-02-15T18:01:17;17.67;;;10.93;;
35909;SDS011;22004;49.120;-0.200;2023-02-15T18:04:03;18.02;;;10.98;;
35909;SDS011;22004;49.120;-0.200;2023-02-15T18:06:47;18.30;;;11.57;;
35909;SDS011;22004;49.120;-0.200;2023-02-15T18:09:31;14.77;;;10.18;;
35909;SDS011;22004;49.120;-0.200;2023-02-15T18:12:18;19.73;;;11.75;;
35909;SDS011;22004;49.120;-0.200;2023-02-15T18:14:52;16.58;;;11.10;;
35909;SDS011;22004;49.120;-0.200;2023-02-15T18:17:18;16.52;;;10.65;;
35909;SDS011;22004;49.120;-0.200;2023-02-15T18:19:54;16.10;;;10.05;;
35909;SDS011;22004;49.120;-0.200;2023-02-15T18:22:19;22.70;;;13.55;;
35909;SDS011;22004;49.120;-0.200;2023-02-15T18:24:46;24.95;;;15.13;;
35909;SDS011;22004;49.120;-0.200;2023-02-15T18:27:12;20.88;;;13.68;;
35909;SDS011;22004;49.120;-0.200;2023-02-15T18:29:39;26.25;;;16.17;;
35909;SDS011;22004;49.120;-0.200;2023-02-15T18:32:06;21.60;;;13.55;;
35909;SDS011;22004;49.120;-0.200;2023-02-15T18:34:35;19.85;;;12.35;;
35909;SDS011;22004;49.120;-0.200;2023-02-15T18:37:03;19.63;;;11.68;;
35909;SDS011;22004;49.120;-0.200;2023-02-15T18:41:56;22.97;;;13.97;;
35909;SDS011;22004;49.120;-0.200;2023-02-15T18:44:21;23.45;;;14.57;;
35909;SDS011;22004;49.120;-0.200;2023-02-15T18:46:47;22.35;;;14.00;;
35909;SDS011;22004;49.120;-0.200;2023-02-15T18:49:13;20.85;;;14.07;;